createdAt,value
2018-06-16T04:59:57.995Z,97.00
2018-06-16T05:02:28.106Z,97.50
2018-06-16T05:04:58.916Z,98.10
2018-06-16T05:07:28.988Z,97.80
2018-06-16T05:09:58.415Z,97.70
2018-06-16T05:12:28.679Z,98.40
2018-06-16T05:15:00.105Z,98.10
2018-06-16T05:17:40.159Z,98.40
2018-06-16T05:20:11.551Z,98.40
2018-06-16T05:22:44.905Z,98.10
2018-06-16T05:25:15.713Z,97.70
2018-06-16T05:27:45.335Z,97.90
2018-06-16T05:30:15.272Z,98.10
2018-06-16T05:32:45.782Z,98.30
2018-06-16T05:35:17.939Z,98.30
2018-06-16T05:37:50.196Z,98.20
2018-06-16T05:40:20.701Z,97.40
2018-06-16T05:42:50.550Z,97.40
2018-06-16T05:45:22.669Z,97.10
2018-06-16T05:47:56.242Z,97.00
2018-06-16T05:50:26.977Z,96.90
2018-06-16T05:52:58.536Z,96.40
2018-06-16T05:55:29.810Z,95.90
2018-06-16T05:57:59.558Z,95.50
2018-06-16T06:00:30.126Z,95.00
2018-06-16T06:02:59.244Z,95.10
2018-06-16T06:05:29.007Z,94.80
2018-06-16T06:08:01.568Z,94.60
2018-06-16T06:10:32.238Z,94.60
2018-06-16T06:13:01.435Z,94.10
2018-06-16T06:15:30.623Z,93.80
2018-06-16T06:18:00.384Z,93.60
2018-06-16T06:20:30.531Z,93.30
2018-06-16T06:23:02.816Z,92.60
2018-06-16T06:25:37.946Z,93.20
2018-06-16T06:28:07.770Z,92.40
2018-06-16T06:30:38.221Z,92.30
2018-06-16T06:33:09.171Z,92.80
2018-06-16T06:35:41.479Z,93.10
2018-06-16T06:38:14.130Z,93.70
2018-06-16T06:40:48.068Z,92.70
2018-06-16T06:43:17.905Z,92.90
2018-06-16T06:45:50.077Z,91.50
2018-06-16T06:48:21.975Z,92.20
2018-06-16T06:50:53.759Z,92.20
2018-06-16T06:53:26.136Z,91.90
2018-06-16T06:55:58.563Z,91.00
2018-06-16T06:58:28.459Z,90.90
2018-06-16T07:01:00.723Z,91.40
2018-06-16T07:03:31.276Z,91.30
2018-06-16T07:06:00.376Z,91.30
2018-06-16T07:08:29.674Z,90.40
2018-06-16T07:11:00.162Z,90.20
2018-06-16T07:13:31.987Z,90.70
2018-06-16T07:16:02.021Z,89.60
2018-06-16T07:18:32.161Z,89.50
2018-06-16T07:21:04.822Z,89.40
2018-06-16T07:23:34.376Z,90.00
2018-06-16T07:26:05.142Z,89.40
2018-06-16T07:28:38.000Z,89.20
2018-06-16T07:31:12.320Z,89.50
2018-06-16T07:33:41.503Z,89.90
2018-06-16T07:36:15.596Z,89.00
2018-06-16T07:38:46.591Z,88.40
2018-06-16T07:41:20.490Z,88.90
2018-06-16T07:43:54.453Z,89.00
2018-06-16T07:46:26.540Z,86.80
